sensor_id;sensor_type;location;lat;lon;timestamp;pressure;altitude;pressure_sealevel;temperature;humidity
15195;BME280;7698;42.478;23.756;2023-05-02T00:00:25;93734.47;;;10.54;100.00
15195;BME280;7698;42.478;23.756;2023-05-02T00:02:52;93730.97;;;10.53;100.00
15195;BME280;7698;42.478;23.756;2023-05-02T00:05:19;93732.84;;;10.52;100.00
15195;BME280;7698;42.478;23.756;2023-05-02T00:07:46;93723.78;;;10.54;100.00
15195;BME280;7698;42.478;23.756;2023-05-02T00:10:14;93731.94;;;10.59;100.00
15195;BME280;7698;42.478;23.756;2023-05-02T00:12:41;93737.63;;;10.62;100.00
15195;BME280;7698;42.478;23.756;2023-05-02T00:15:08;93732.75;;;10.59;100.00
15195;BME280;7698;42.478;23.756;2023-05-02T00:17:35;93740.06;;;10.64;100.00
15195;BME280;7698;42.478;23.756;2023-05-02T00:20:02;93744.47;;;10.70;100.00
15195;BME280;7698;42.478;23.756;2023-05-02T00:22:29;93750.84;;;10.69;100.00
15195;BME280;7698;42.478;23.756;2023-05-02T00:24:56;93751.66;;;10.69;100.00
15195;BME280;7698;42.478;23.756;2023-05-02T00:27:24;93743.56;;;10.76;100.00
15195;BME280;7698;42.478;23.756;2023-05-02T00:29:52;93745.78;;;10.79;100.00
15195;BME280;7698;42.478;23.756;2023-05-02T00:32:19;93740.31;;;10.74;100.00
15195;BME280;7698;42.478;23.756;2023-05-02T00:34:46;93742.84;;;10.69;100.00
15195;BME280;7698;42.478;23.756;2023-05-02T00:37:12;93744.81;;;10.62;100.00
15195;BME280;7698;42.478;23.756;2023-05-02T00:39:39;93751.31;;;10.54;100.00
15195;BME280;7698;42.478;23.756;2023-05-02T00:42:06;93758.72;;;10.52;100.00
15195;BME280;7698;42.478;23.756;2023-05-02T00:44:34;93763.47;;;10.50;100.00
15195;BME280;7698;42.478;23.756;2023-05-02T00:47:01;93766.97;;;10.50;100.00
15195;BME280;7698;42.478;23.756;2023-05-02T00:49:28;93762.28;;;10.46;100.00
15195;BME280;7698;42.478;23.756;2023-05-02T00:51:56;93765.88;;;10.40;100.00
15195;BME280;7698;42.478;23.756;2023-05-02T00:54:23;93760.88;;;10.32;100.00
15195;BME280;7698;42.478;23.756;2023-05-02T00:56:50;93764.88;;;10.23;100.00
15195;BME280;7698;42.478;23.756;2023-05-02T00:59:17;93771.31;;;10.15;100.00
15195;BME280;7698;42.478;23.756;2023-05-02T01:01:53;93774.75;;;10.04;100.00
15195;BME280;7698;42.478;23.756;2023-05-02T01:04:30;93767.63;;;9.98;100.00
15195;BME280;7698;42.478;23.756;2023-05-02T01:07:16;93767.72;;;9.91;100.00
15195;BME280;7698;42.478;23.756;2023-05-02T01:09:53;93772.22;;;9.91;100.00
15195;BME280;7698;42.478;23.756;2023-05-02T01:12:26;93773.41;;;9.95;100.00
15195;BME280;7698;42.478;23.756;2023-05-02T01:14:55;93768.53;;;9.92;100.00
15195;BME280;7698;42.478;23.756;2023-05-02T01:17:27;93768.97;;;9.89;100.00
15195;BME280;7698;42.478;23.756;2023-05-02T01:19:58;93768.59;;;9.85;100.00
15195;BME280;7698;42.478;23.756;2023-05-02T01:22:27;93770.22;;;9.86;100.00
15195;BME280;7698;42.478;23.756;2023-05-02T01:25:00;93773.28;;;9.90;100.00
15195;BME280;7698;42.478;23.756;2023-05-02T01:27:38;93770.16;;;9.93;100.00
15195;BME280;7698;42.478;23.756;2023-05-02T01:30:10;93766.91;;;9.91;100.00
15195;BME280;7698;42.478;23.756;2023-05-02T01:32:40;93764.81;;;9.93;100.00
15195;BME280;7698;42.478;23.756;2023-05-02T01:35:09;93769.34;;;9.92;100.00
15195;BME280;7698;42.478;23.756;2023-05-02T01:37:37;93767.72;;;9.91;100.00
15195;BME280;7698;42.478;23.756;2023-05-02T01:40:08;93764.69;;;9.88;100.00
15195;BME280;7698;42.478;23.756;2023-05-02T01:42:36;93762.94;;;9.81;100.00
15195;BME280;7698;42.478;23.756;2023-05-02T01:45:05;93764.63;;;9.76;100.00
15195;BME280;7698;42.478;23.756;2023-05-02T01:47:35;93768.41;;;9.68;100.00
15195;BME280;7698;42.478;23.756;2023-05-02T01:50:05;93764.84;;;9.56;100.00
15195;BME280;7698;42.478;23.756;2023-05-02T01:52:32;93765.00;;;9.43;100.00
15195;BME280;7698;42.478;23.756;2023-05-02T01:55:00;93767.34;;;9.33;100.00
15195;BME280;7698;42.478;23.756;2023-05-02T01:57:30;93772.38;;;9.23;100.00
15195;BME280;7698;42.478;23.756;2023-05-02T01:59:57;93777.09;;;9.21;100.00
15195;BME280;7698;42.478;23.756;2023-05-02T02:02:26;93770.84;;;9.08;100.00
15195;BME280;7698;42.478;23.756;2023-05-02T02:04:55;93772.31;;;9.04;100.00
15195;BME280;7698;42.478;23.756;2023-05-02T02:07:23;93768.53;;;8.94;100.00
15195;BME280;7698;42.478;23.756;2023-05-02T02:09:50;93770.88;;;8.83;100.00
15195;BME280;7698;42.478;23.756;2023-05-02T02:12:23;93766.84;;;8.74;100.00
15195;BME280;7698;42.478;23.756;2023-05-02T02:14:55;93764.50;;;8.60;100.00
15195;BME280;7698;42.478;23.756;2023-05-02T02:17:25;93771.28;;;8.56;100.00
15195;BME280;7698;42.478;23.756;2023-05-02T02:19:55;93766.59;;;8.51;100.00
15195;BME280;7698;42.478;23.756;2023-05-02T02:22:24;93768.44;;;8.51;100.00
15195;BME280;7698;42.478;23.756;2023-05-02T02:24:52;93770.25;;;8.57;100.00
15195;BME280;7698;42.478;23.756;2023-05-02T02:27:20;93771.03;;;8.64;100.00
15195;BME280;7698;42.478;23.756;2023-05-02T02:29:47;93773.78;;;8.75;100.00
15195;BME280;7698;42.478;23.756;2023-05-02T02:32:13;93771.41;;;8.92;100.00
15195;BME280;7698;42.478;23.756;2023-05-02T02:34:40;93765.97;;;9.05;100.00
15195;BME280;7698;42.478;23.756;2023-05-02T02:37:14;93769.75;;;9.16;100.00
15195;BME280;7698;42.478;23.756;2023-05-02T02:39:48;93764.44;;;9.16;100.00
15195;BME280;7698;42.478;23.756;2023-05-02T02:42:23;93767.69;;;9.18;100.00
15195;BME280;7698;42.478;23.756;2023-05-02T02:44:54;93772.00;;;9.19;100.00
15195;BME280;7698;42.478;23.756;2023-05-02T02:47:26;93766.44;;;9.21;100.00
15195;BME280;7698;42.478;23.756;2023-05-02T02:50:08;93771.56;;;9.22;100.00
15195;BME280;7698;42.478;23.756;2023-05-02T02:52:49;93772.00;;;9.19;100.00
15195;BME280;7698;42.478;23.756;2023-05-02T02:55:28;93766.94;;;9.11;100.00
15195;BME280;7698;42.478;23.756;2023-05-02T02:58:00;93769.66;;;9.04;100.00
15195;BME280;7698;42.478;23.756;2023-05-02T03:00:31;93766.69;;;8.94;100.00
15195;BME280;7698;42.478;23.756;2023-05-02T03:02:59;93774.78;;;8.81;100.00
15195;BME280;7698;42.478;23.756;2023-05-02T03:05:26;93782.03;;;8.74;100.00
15195;BME280;7698;42.478;23.756;2023-05-02T03:07:58;93781.03;;;8.68;100.00
15195;BME280;7698;42.478;23.756;2023-05-02T03:10:25;93776.75;;;8.67;100.00
15195;BME280;7698;42.478;23.756;2023-05-02T03:12:52;93773.84;;;8.69;100.00
15195;BME280;7698;42.478;23.756;2023-05-02T03:15:43;93781.19;;;8.73;100.00
15195;BME280;7698;42.478;23.756;2023-05-02T03:18:19;93782.22;;;8.72;100.00
15195;BME280;7698;42.478;23.756;2023-05-02T03:20:46;93784.28;;;8.70;100.00
15195;BME280;7698;42.478;23.756;2023-05-02T03:23:14;93784.50;;;8.69;100.00
15195;BME280;7698;42.478;23.756;2023-05-02T03:25:41;93792.72;;;8.67;100.00
15195;BME280;7698;42.478;23.756;2023-05-02T03:28:08;93791.06;;;8.66;100.00
15195;BME280;7698;42.478;23.756;2023-05-02T03:30:35;93790.47;;;8.64;100.00
15195;BME280;7698;42.478;23.756;2023-05-02T03:33:04;93792.31;;;8.64;100.00
15195;BME280;7698;42.478;23.756;2023-05-02T03:35:33;93793.13;;;8.64;100.00
15195;BME280;7698;42.478;23.756;2023-05-02T03:38:00;93796.41;;;8.66;100.00
15195;BME280;7698;42.478;23.756;2023-05-02T03:40:28;93800.47;;;8.69;100.00
15195;BME280;7698;42.478;23.756;2023-05-02T03:42:55;93803.06;;;8.75;100.00
15195;BME280;7698;42.478;23.756;2023-05-02T03:45:22;93803.25;;;8.80;100.00
15195;BME280;7698;42.478;23.756;2023-05-02T03:47:48;93801.13;;;8.89;100.00
15195;BME280;7698;42.478;23.756;2023-05-02T03:50:15;93805.59;;;8.95;100.00
15195;BME280;7698;42.478;23.756;2023-05-02T03:52:42;93800.66;;;8.99;100.00
15195;BME280;7698;42.478;23.756;2023-05-02T03:55:09;93801.47;;;8.99;100.00
15195;BME280;7698;42.478;23.756;2023-05-02T03:57:37;93802.50;;;8.98;100.00
15195;BME280;7698;42.478;23.756;2023-05-02T04:00:06;93804.28;;;9.04;100.00
15195;BME280;7698;42.478;23.756;2023-05-02T04:02:33;93807.94;;;9.10;100.00
15195;BME280;7698;42.478;23.756;2023-05-02T04:05:00;93806.06;;;9.10;100.00
15195;BME280;7698;42.478;23.756;2023-05-02T04:07:26;93810.75;;;9.15;100.00
15195;BME280;7698;42.478;23.756;2023-05-02T04:09:53;93809.72;;;9.16;100.00
15195;BME280;7698;42.478;23.756;2023-05-02T04:12:20;93818.47;;;9.23;100.00
15195;BME280;7698;42.478;23.756;2023-05-02T04:14:48;93821.22;;;9.35;100.00
15195;BME280;7698;42.478;23.756;2023-05-02T04:17:15;93809.47;;;9.42;100.00
15195;BME280;7698;42.478;23.756;2023-05-02T04:19:42;93811.22;;;9.55;100.00
15195;BME280;7698;42.478;23.756;2023-05-02T04:22:09;93813.06;;;9.73;100.00
15195;BME280;7698;42.478;23.756;2023-05-02T04:24:36;93808.25;;;10.00;100.00
15195;BME280;7698;42.478;23.756;2023-05-02T04:27:03;93811.53;;;10.50;100.00
15195;BME280;7698;42.478;23.756;2023-05-02T04:29:30;93810.88;;;11.08;100.00
15195;BME280;7698;42.478;23.756;2023-05-02T04:31:58;93809.97;;;11.49;98.02
15195;BME280;7698;42.478;23.756;2023-05-02T04:34:25;93813.34;;;11.56;94.45
15195;BME280;7698;42.478;23.756;2023-05-02T04:36:52;93813.94;;;11.58;93.69
15195;BME280;7698;42.478;23.756;2023-05-02T04:39:19;93809.88;;;11.67;90.15
15195;BME280;7698;42.478;23.756;2023-05-02T04:41:47;93810.09;;;12.01;89.01
15195;BME280;7698;42.478;23.756;2023-05-02T04:44:14;93808.28;;;12.18;87.58
15195;BME280;7698;42.478;23.756;2023-05-02T04:46:41;93809.34;;;12.57;87.79
15195;BME280;7698;42.478;23.756;2023-05-02T04:49:09;93798.53;;;12.97;84.64
15195;BME280;7698;42.478;23.756;2023-05-02T04:51:36;93816.31;;;13.32;80.48
15195;BME280;7698;42.478;23.756;2023-05-02T04:54:02;93815.28;;;13.71;78.62
15195;BME280;7698;42.478;23.756;2023-05-02T04:56:29;93817.66;;;13.84;72.48
15195;BME280;7698;42.478;23.756;2023-05-02T04:58:56;93819.19;;;14.19;72.09
15195;BME280;7698;42.478;23.756;2023-05-02T05:01:23;93820.25;;;14.18;68.44
15195;BME280;7698;42.478;23.756;2023-05-02T05:03:52;93821.22;;;14.50;68.77
15195;BME280;7698;42.478;23.756;2023-05-02T05:06:20;93826.16;;;14.59;65.20
15195;BME280;7698;42.478;23.756;2023-05-02T05:08:47;93824.44;;;14.47;62.50
15195;BME280;7698;42.478;23.756;2023-05-02T05:11:14;93827.28;;;14.41;64.33
15195;BME280;7698;42.478;23.756;2023-05-02T05:13:41;93827.50;;;14.83;63.89
15195;BME280;7698;42.478;23.756;2023-05-02T05:16:08;93828.22;;;15.00;60.73
15195;BME280;7698;42.478;23.756;2023-05-02T05:18:35;93835.13;;;15.18;61.24
15195;BME280;7698;42.478;23.756;2023-05-02T05:21:05;93834.88;;;15.19;59.30
15195;BME280;7698;42.478;23.756;2023-05-02T05:23:33;93834.41;;;15.28;59.44
15195;BME280;7698;42.478;23.756;2023-05-02T05:26:07;93832.78;;;15.27;57.71
15195;BME280;7698;42.478;23.756;2023-05-02T05:28:35;93835.47;;;15.27;57.90
15195;BME280;7698;42.478;23.756;2023-05-02T05:31:04;93833.38;;;15.34;57.13
15195;BME280;7698;42.478;23.756;2023-05-02T05:33:32;93832.75;;;15.53;55.80
15195;BME280;7698;42.478;23.756;2023-05-02T05:36:03;93847.97;;;15.70;55.13
15195;BME280;7698;42.478;23.756;2023-05-02T05:38:30;93839.88;;;15.38;53.51
15195;BME280;7698;42.478;23.756;2023-05-02T05:40:58;93841.63;;;15.54;53.24
15195;BME280;7698;42.478;23.756;2023-05-02T05:43:25;93844.13;;;15.61;52.64
15195;BME280;7698;42.478;23.756;2023-05-02T05:45:52;93841.88;;;15.52;53.87
15195;BME280;7698;42.478;23.756;2023-05-02T05:48:19;93844.13;;;15.61;51.66
15195;BME280;7698;42.478;23.756;2023-05-02T05:50:46;93850.16;;;15.46;51.91
15195;BME280;7698;42.478;23.756;2023-05-02T05:53:14;93846.78;;;15.29;51.25
15195;BME280;7698;42.478;23.756;2023-05-02T05:55:41;93856.84;;;15.11;51.03
15195;BME280;7698;42.478;23.756;2023-05-02T05:58:09;93851.97;;;15.08;50.79
15195;BME280;7698;42.478;23.756;2023-05-02T06:00:36;93852.81;;;15.41;51.43
15195;BME280;7698;42.478;23.756;2023-05-02T06:03:04;93856.34;;;15.73;52.03
15195;BME280;7698;42.478;23.756;2023-05-02T06:05:31;93860.66;;;15.74;50.16
15195;BME280;7698;42.478;23.756;2023-05-02T06:07:59;93862.69;;;15.57;50.52
15195;BME280;7698;42.478;23.756;2023-05-02T06:10:26;93862.75;;;15.67;51.00
15195;BME280;7698;42.478;23.756;2023-05-02T06:12:53;93865.03;;;15.53;50.02
15195;BME280;7698;42.478;23.756;2023-05-02T06:15:21;93864.13;;;15.43;49.48
15195;BME280;7698;42.478;23.756;2023-05-02T06:17:49;93860.81;;;15.31;50.83
15195;BME280;7698;42.478;23.756;2023-05-02T06:20:17;93855.03;;;15.49;51.17
15195;BME280;7698;42.478;23.756;2023-05-02T06:22:43;93856.31;;;15.68;50.87
15195;BME280;7698;42.478;23.756;2023-05-02T06:25:10;93848.94;;;15.90;50.48
15195;BME280;7698;42.478;23.756;2023-05-02T06:27:37;93837.22;;;16.12;49.99
15195;BME280;7698;42.478;23.756;2023-05-02T06:30:05;93852.47;;;15.96;48.90
15195;BME280;7698;42.478;23.756;2023-05-02T06:32:34;93833.56;;;15.91;49.57
15195;BME280;7698;42.478;23.756;2023-05-02T06:35:01;93833.94;;;16.05;49.93
15195;BME280;7698;42.478;23.756;2023-05-02T06:37:32;93838.84;;;16.13;49.71
15195;BME280;7698;42.478;23.756;2023-05-02T06:39:59;93832.75;;;16.33;50.05
15195;BME280;7698;42.478;23.756;2023-05-02T06:42:26;93843.84;;;16.41;49.02
15195;BME280;7698;42.478;23.756;2023-05-02T06:44:53;93843.44;;;16.70;50.10
15195;BME280;7698;42.478;23.756;2023-05-02T06:47:20;93839.72;;;16.81;48.48
15195;BME280;7698;42.478;23.756;2023-05-02T06:49:50;93835.47;;;17.05;48.96
15195;BME280;7698;42.478;23.756;2023-05-02T06:52:17;93848.22;;;17.30;48.44
15195;BME280;7698;42.478;23.756;2023-05-02T06:54:44;93846.88;;;17.33;46.76
15195;BME280;7698;42.478;23.756;2023-05-02T06:57:11;93848.78;;;17.42;47.25
15195;BME280;7698;42.478;23.756;2023-05-02T06:59:38;93847.22;;;17.72;46.97
15195;BME280;7698;42.478;23.756;2023-05-02T07:02:05;93845.31;;;17.92;46.73
15195;BME280;7698;42.478;23.756;2023-05-02T07:04:32;93848.31;;;17.76;45.35
15195;BME280;7698;42.478;23.756;2023-05-02T07:07:00;93853.69;;;17.66;46.72
15195;BME280;7698;42.478;23.756;2023-05-02T07:09:28;93848.00;;;18.03;46.77
15195;BME280;7698;42.478;23.756;2023-05-02T07:11:55;93840.69;;;18.18;45.67
15195;BME280;7698;42.478;23.756;2023-05-02T07:14:22;93844.72;;;18.31;45.69
15195;BME280;7698;42.478;23.756;2023-05-02T07:16:48;93851.44;;;18.44;45.10
15195;BME280;7698;42.478;23.756;2023-05-02T07:19:15;93853.84;;;18.60;45.57
15195;BME280;7698;42.478;23.756;2023-05-02T07:21:42;93853.31;;;18.48;44.70
15195;BME280;7698;42.478;23.756;2023-05-02T07:24:10;93851.69;;;18.52;44.98
15195;BME280;7698;42.478;23.756;2023-05-02T07:26:37;93847.56;;;18.85;44.52
15195;BME280;7698;42.478;23.756;2023-05-02T07:29:04;93854.84;;;18.85;43.42
15195;BME280;7698;42.478;23.756;2023-05-02T07:31:34;93854.59;;;18.86;43.95
15195;BME280;7698;42.478;23.756;2023-05-02T07:34:00;93856.56;;;18.50;43.46
15195;BME280;7698;42.478;23.756;2023-05-02T07:36:27;93852.78;;;18.51;44.55
15195;BME280;7698;42.478;23.756;2023-05-02T07:38:54;93853.03;;;18.60;43.54
15195;BME280;7698;42.478;23.756;2023-05-02T07:41:22;93845.44;;;18.72;43.00
15195;BME280;7698;42.478;23.756;2023-05-02T07:43:49;93854.34;;;18.78;42.84
15195;BME280;7698;42.478;23.756;2023-05-02T07:46:16;93863.66;;;19.11;43.69
15195;BME280;7698;42.478;23.756;2023-05-02T07:48:43;93860.63;;;19.17;42.18
15195;BME280;7698;42.478;23.756;2023-05-02T07:51:10;93859.22;;;19.30;42.82
15195;BME280;7698;42.478;23.756;2023-05-02T07:53:37;93857.84;;;19.38;42.19
15195;BME280;7698;42.478;23.756;2023-05-02T07:56:04;93859.47;;;19.39;42.29
15195;BME280;7698;42.478;23.756;2023-05-02T07:58:34;93872.38;;;19.52;40.47
15195;BME280;7698;42.478;23.756;2023-05-02T08:01:01;93863.41;;;19.62;41.38
15195;BME280;7698;42.478;23.756;2023-05-02T08:03:28;93864.75;;;19.59;40.48
15195;BME280;7698;42.478;23.756;2023-05-02T08:05:56;93869.88;;;19.66;40.72
15195;BME280;7698;42.478;23.756;2023-05-02T08:08:22;93871.47;;;20.01;41.29
15195;BME280;7698;42.478;23.756;2023-05-02T08:10:49;93865.50;;;20.38;41.28
15195;BME280;7698;42.478;23.756;2023-05-02T08:13:16;93882.63;;;20.28;39.02
15195;BME280;7698;42.478;23.756;2023-05-02T08:15:45;93862.41;;;19.86;40.40
15195;BME280;7698;42.478;23.756;2023-05-02T08:18:12;93850.59;;;20.01;39.93
15195;BME280;7698;42.478;23.756;2023-05-02T08:20:38;93871.09;;;20.17;39.46
15195;BME280;7698;42.478;23.756;2023-05-02T08:23:05;93869.75;;;20.15;38.85
15195;BME280;7698;42.478;23.756;2023-05-02T08:25:32;93862.88;;;19.93;38.70
15195;BME280;7698;42.478;23.756;2023-05-02T08:27:59;93856.59;;;19.98;38.79
15195;BME280;7698;42.478;23.756;2023-05-02T08:30:26;93863.50;;;19.41;38.96
15195;BME280;7698;42.478;23.756;2023-05-02T08:32:54;93859.63;;;19.08;39.33
15195;BME280;7698;42.478;23.756;2023-05-02T08:35:21;93865.03;;;19.08;40.08
15195;BME280;7698;42.478;23.756;2023-05-02T08:37:48;93868.31;;;19.00;39.55
15195;BME280;7698;42.478;23.756;2023-05-02T08:40:16;93864.00;;;18.94;39.42
15195;BME280;7698;42.478;23.756;2023-05-02T08:42:43;93858.94;;;19.37;40.26
15195;BME280;7698;42.478;23.756;2023-05-02T08:45:12;93858.56;;;19.48;40.42
15195;BME280;7698;42.478;23.756;2023-05-02T08:47:40;93858.56;;;19.92;39.39
15195;BME280;7698;42.478;23.756;2023-05-02T08:50:09;93853.84;;;20.37;40.30
15195;BME280;7698;42.478;23.756;2023-05-02T08:52:37;93855.09;;;20.74;39.06
15195;BME280;7698;42.478;23.756;2023-05-02T08:55:06;93869.78;;;20.44;38.26
15195;BME280;7698;42.478;23.756;2023-05-02T08:57:33;93848.59;;;19.83;38.73
15195;BME280;7698;42.478;23.756;2023-05-02T09:00:00;93865.03;;;20.25;39.02
15195;BME280;7698;42.478;23.756;2023-05-02T09:02:49;93858.75;;;20.30;38.98
15195;BME280;7698;42.478;23.756;2023-05-02T09:05:22;93858.06;;;20.19;39.08
15195;BME280;7698;42.478;23.756;2023-05-02T09:07:50;93851.91;;;20.09;38.46
15195;BME280;7698;42.478;23.756;2023-05-02T09:10:17;93852.69;;;19.80;40.16
15195;BME280;7698;42.478;23.756;2023-05-02T09:12:44;93853.94;;;19.59;38.37
15195;BME280;7698;42.478;23.756;2023-05-02T09:15:13;93850.84;;;19.71;39.00
15195;BME280;7698;42.478;23.756;2023-05-02T09:17:41;93843.41;;;20.20;40.00
15195;BME280;7698;42.478;23.756;2023-05-02T09:20:10;93860.75;;;19.90;39.29
15195;BME280;7698;42.478;23.756;2023-05-02T09:22:40;93845.72;;;20.03;40.28
15195;BME280;7698;42.478;23.756;2023-05-02T09:25:13;93849.41;;;19.83;39.24
15195;BME280;7698;42.478;23.756;2023-05-02T09:27:51;93848.34;;;19.79;39.44
15195;BME280;7698;42.478;23.756;2023-05-02T09:30:20;93849.63;;;19.53;38.69
15195;BME280;7698;42.478;23.756;2023-05-02T09:32:48;93842.34;;;19.87;40.10
15195;BME280;7698;42.478;23.756;2023-05-02T09:35:17;93843.47;;;20.10;39.60
15195;BME280;7698;42.478;23.756;2023-05-02T09:37:53;93833.00;;;20.56;39.75
15195;BME280;7698;42.478;23.756;2023-05-02T09:40:20;93843.75;;;20.90;38.95
15195;BME280;7698;42.478;23.756;2023-05-02T09:42:48;93842.03;;;20.23;38.84
15195;BME280;7698;42.478;23.756;2023-05-02T09:45:20;93851.56;;;20.49;38.35
15195;BME280;7698;42.478;23.756;2023-05-02T09:47:47;93842.16;;;20.37;38.95
15195;BME280;7698;42.478;23.756;2023-05-02T09:50:34;93839.25;;;20.28;37.41
15195;BME280;7698;42.478;23.756;2023-05-02T09:53:04;93822.56;;;20.45;37.97
15195;BME280;7698;42.478;23.756;2023-05-02T09:55:31;93828.84;;;20.40;37.77
15195;BME280;7698;42.478;23.756;2023-05-02T09:57:58;93831.81;;;20.44;38.36
15195;BME280;7698;42.478;23.756;2023-05-02T10:00:39;93839.25;;;20.28;37.33
15195;BME280;7698;42.478;23.756;2023-05-02T10:03:06;93821.19;;;20.47;38.70
15195;BME280;7698;42.478;23.756;2023-05-02T10:05:35;93823.94;;;20.90;38.63
15195;BME280;7698;42.478;23.756;2023-05-02T10:08:04;93818.22;;;21.10;38.33
15195;BME280;7698;42.478;23.756;2023-05-02T10:10:32;93825.50;;;20.72;38.63
15195;BME280;7698;42.478;23.756;2023-05-02T10:13:03;93818.13;;;20.78;37.04
15195;BME280;7698;42.478;23.756;2023-05-02T10:15:31;93818.81;;;20.65;38.24
15195;BME280;7698;42.478;23.756;2023-05-02T10:17:59;93817.78;;;20.60;37.52
15195;BME280;7698;42.478;23.756;2023-05-02T10:20:30;93813.06;;;20.47;37.81
15195;BME280;7698;42.478;23.756;2023-05-02T10:22:59;93832.19;;;20.27;39.41
15195;BME280;7698;42.478;23.756;2023-05-02T10:25:28;93822.91;;;20.62;38.47
15195;BME280;7698;42.478;23.756;2023-05-02T10:27:55;93802.94;;;20.77;38.88
15195;BME280;7698;42.478;23.756;2023-05-02T10:30:24;93807.38;;;20.68;37.37
15195;BME280;7698;42.478;23.756;2023-05-02T10:32:51;93797.69;;;20.61;38.56
15195;BME280;7698;42.478;23.756;2023-05-02T10:35:19;93794.59;;;21.11;38.78
15195;BME280;7698;42.478;23.756;2023-05-02T10:37:47;93811.28;;;20.80;36.26
15195;BME280;7698;42.478;23.756;2023-05-02T10:40:15;93803.94;;;21.05;37.93
15195;BME280;7698;42.478;23.756;2023-05-02T10:42:45;93804.06;;;21.13;37.67
15195;BME280;7698;42.478;23.756;2023-05-02T10:45:29;93801.47;;;21.46;36.47
15195;BME280;7698;42.478;23.756;2023-05-02T10:48:12;93797.03;;;21.12;36.72
15195;BME280;7698;42.478;23.756;2023-05-02T10:50:46;93801.31;;;21.37;35.86
15195;BME280;7698;42.478;23.756;2023-05-02T10:53:30;93810.59;;;21.12;37.10
15195;BME280;7698;42.478;23.756;2023-05-02T10:56:10;93802.72;;;20.49;36.62
15195;BME280;7698;42.478;23.756;2023-05-02T10:58:38;93800.25;;;20.95;36.91
15195;BME280;7698;42.478;23.756;2023-05-02T11:01:32;93813.19;;;21.04;36.98
15195;BME280;7698;42.478;23.756;2023-05-02T11:04:08;93807.13;;;21.07;36.09
15195;BME280;7698;42.478;23.756;2023-05-02T11:06:36;93797.69;;;20.61;35.54
15195;BME280;7698;42.478;23.756;2023-05-02T11:09:30;93793.22;;;20.23;36.93
15195;BME280;7698;42.478;23.756;2023-05-02T11:11:58;93787.03;;;19.88;37.29
15195;BME280;7698;42.478;23.756;2023-05-02T11:14:46;93782.31;;;19.99;37.05
15195;BME280;7698;42.478;23.756;2023-05-02T11:17:13;93790.31;;;19.85;36.98
15195;BME280;7698;42.478;23.756;2023-05-02T11:22:50;93790.91;;;19.77;35.85
15195;BME280;7698;42.478;23.756;2023-05-02T11:25:34;93790.16;;;20.01;36.93
15195;BME280;7698;42.478;23.756;2023-05-02T11:28:03;93796.75;;;19.94;35.94
15195;BME280;7698;42.478;23.756;2023-05-02T11:30:39;93787.72;;;20.28;37.74
15195;BME280;7698;42.478;23.756;2023-05-02T11:33:13;93788.34;;;20.20;35.62
15195;BME280;7698;42.478;23.756;2023-05-02T11:35:42;93791.69;;;20.12;36.50
15195;BME280;7698;42.478;23.756;2023-05-02T11:38:12;93795.22;;;19.83;36.88
15195;BME280;7698;42.478;23.756;2023-05-02T11:40:39;93785.81;;;20.00;37.15
15195;BME280;7698;42.478;23.756;2023-05-02T11:43:14;93777.34;;;20.35;37.41
15195;BME280;7698;42.478;23.756;2023-05-02T11:45:42;93783.03;;;20.34;36.29
15195;BME280;7698;42.478;23.756;2023-05-02T11:48:11;93781.88;;;20.45;36.72
15195;BME280;7698;42.478;23.756;2023-05-02T11:50:41;93777.41;;;20.78;36.43
15195;BME280;7698;42.478;23.756;2023-05-02T11:53:12;93779.34;;;20.96;35.08
15195;BME280;7698;42.478;23.756;2023-05-02T11:55:47;93776.41;;;21.11;34.98
15195;BME280;7698;42.478;23.756;2023-05-02T11:58:16;93788.44;;;21.05;34.96
15195;BME280;7698;42.478;23.756;2023-05-02T12:00:45;93772.75;;;21.02;34.59
15195;BME280;7698;42.478;23.756;2023-05-02T12:03:23;93768.25;;;20.92;34.97
15195;BME280;7698;42.478;23.756;2023-05-02T12:05:50;93759.88;;;20.46;36.12
15195;BME280;7698;42.478;23.756;2023-05-02T12:08:22;93761.88;;;20.59;35.13
15195;BME280;7698;42.478;23.756;2023-05-02T12:10:51;93757.28;;;20.07;34.38
15195;BME280;7698;42.478;23.756;2023-05-02T12:13:19;93751.28;;;19.86;35.83
15195;BME280;7698;42.478;23.756;2023-05-02T12:15:49;93750.72;;;20.13;35.53
15195;BME280;7698;42.478;23.756;2023-05-02T12:18:18;93742.66;;;20.08;36.70
15195;BME280;7698;42.478;23.756;2023-05-02T12:20:48;93744.56;;;20.32;36.34
15195;BME280;7698;42.478;23.756;2023-05-02T12:23:15;93740.94;;;20.65;36.84
15195;BME280;7698;42.478;23.756;2023-05-02T12:25:42;93742.03;;;20.83;34.17
15195;BME280;7698;42.478;23.756;2023-05-02T12:28:09;93754.25;;;20.61;34.46
15195;BME280;7698;42.478;23.756;2023-05-02T12:30:37;93747.22;;;20.60;35.68
15195;BME280;7698;42.478;23.756;2023-05-02T12:33:07;93742.03;;;20.83;35.66
15195;BME280;7698;42.478;23.756;2023-05-02T12:35:34;93742.44;;;20.95;34.74
15195;BME280;7698;42.478;23.756;2023-05-02T12:38:09;93735.81;;;20.82;34.49
15195;BME280;7698;42.478;23.756;2023-05-02T12:40:37;93731.16;;;20.64;34.42
15195;BME280;7698;42.478;23.756;2023-05-02T12:43:05;93716.66;;;21.11;34.98
15195;BME280;7698;42.478;23.756;2023-05-02T12:45:35;93710.22;;;20.70;34.56
15195;BME280;7698;42.478;23.756;2023-05-02T12:48:18;93715.53;;;20.32;34.65
15195;BME280;7698;42.478;23.756;2023-05-02T12:50:46;93711.16;;;20.36;36.09
15195;BME280;7698;42.478;23.756;2023-05-02T12:53:13;93720.47;;;20.73;36.09
15195;BME280;7698;42.478;23.756;2023-05-02T12:55:40;93713.28;;;21.19;35.42
15195;BME280;7698;42.478;23.756;2023-05-02T12:58:08;93710.94;;;20.94;34.50
15195;BME280;7698;42.478;23.756;2023-05-02T13:00:36;93695.88;;;20.45;34.40
15195;BME280;7698;42.478;23.756;2023-05-02T13:03:03;93702.84;;;20.27;34.68
15195;BME280;7698;42.478;23.756;2023-05-02T13:05:32;93698.47;;;20.08;34.36
15195;BME280;7698;42.478;23.756;2023-05-02T13:07:59;93703.00;;;20.36;35.94
15195;BME280;7698;42.478;23.756;2023-05-02T13:10:26;93699.75;;;20.39;34.56
15195;BME280;7698;42.478;23.756;2023-05-02T13:12:54;93703.94;;;20.26;35.03